createdAt,value
2023-03-19T00:04:59.798Z,15.55
2023-03-19T00:11:10.325Z,16.00
2023-03-19T00:17:12.827Z,15.85
2023-03-19T00:23:15.203Z,15.30
2023-03-19T00:29:17.619Z,19.58
2023-03-19T00:35:19.949Z,18.23
2023-03-19T00:41:23.104Z,17.67
2023-03-19T00:47:25.728Z,16.10
2023-03-19T00:59:30.750Z,17.23
2023-03-19T01:05:35.352Z,17.23
2023-03-19T01:11:37.790Z,16.85
2023-03-19T01:17:40.124Z,19.17
2023-03-19T01:23:42.425Z,18.42
2023-03-19T01:29:44.773Z,22.52
2023-03-19T01:35:52.834Z,20.25
2023-03-19T01:42:02.127Z,20.70
2023-03-19T01:48:39.946Z,22.90
2023-03-19T01:54:46.929Z,21.77
2023-03-19T02:01:04.884Z,20.90
2023-03-19T02:07:11.526Z,21.85
2023-03-19T02:13:14.888Z,22.50
2023-03-19T02:19:29.137Z,23.70
2023-03-19T02:25:40.127Z,20.60
2023-03-19T02:31:42.592Z,19.85
2023-03-19T02:37:45.030Z,20.58
2023-03-19T02:43:47.466Z,18.92
2023-03-19T02:49:49.850Z,20.05
2023-03-19T02:55:52.500Z,18.70
2023-03-19T03:01:55.088Z,20.95
2023-03-19T03:07:57.387Z,19.88
2023-03-19T03:13:59.648Z,19.13
2023-03-19T03:26:05.300Z,18.55
2023-03-19T03:32:08.262Z,21.40
2023-03-19T03:38:10.493Z,19.13
2023-03-19T03:44:12.932Z,18.50
2023-03-19T03:50:17.464Z,21.05
2023-03-19T03:56:21.945Z,21.73
2023-03-19T04:08:27.878Z,19.63
2023-03-19T04:14:30.442Z,21.10
2023-03-19T04:20:33.347Z,19.73
2023-03-19T04:26:36.600Z,21.33
2023-03-19T04:32:39.231Z,19.05
2023-03-19T04:38:42.798Z,23.27
2023-03-19T04:44:45.051Z,22.00
2023-03-19T04:50:52.197Z,21.27
2023-03-19T04:56:55.547Z,20.55
2023-03-19T05:03:01.234Z,20.95
2023-03-19T05:09:07.893Z,22.98
2023-03-19T05:15:10.736Z,21.75
2023-03-19T05:21:32.370Z,23.75
2023-03-19T05:33:40.768Z,22.48
2023-03-19T05:39:43.785Z,23.05
2023-03-19T05:51:57.146Z,20.80
2023-03-19T06:04:04.898Z,20.90
2023-03-19T06:10:09.032Z,21.35
2023-03-19T06:16:12.377Z,21.13
2023-03-19T06:22:20.963Z,20.35
2023-03-19T06:28:23.955Z,20.15
2023-03-19T06:34:26.992Z,20.52
2023-03-19T06:40:29.545Z,18.90
2023-03-19T06:52:34.026Z,21.13
2023-03-19T07:04:39.148Z,23.33
2023-03-19T07:10:41.605Z,21.88
2023-03-19T07:16:43.948Z,21.42
2023-03-19T07:22:46.441Z,19.98
2023-03-19T07:28:48.893Z,22.05
2023-03-19T07:34:51.417Z,20.88
2023-03-19T07:41:01.863Z,20.50
2023-03-19T07:47:06.841Z,21.58
2023-03-19T07:53:10.415Z,21.98
2023-03-19T07:59:12.924Z,22.23
2023-03-19T08:05:15.206Z,21.52
2023-03-19T08:11:17.765Z,23.48
2023-03-19T08:17:20.055Z,20.25
2023-03-19T08:23:22.558Z,19.27
2023-03-19T08:29:27.485Z,20.33
2023-03-19T08:35:29.853Z,17.83
2023-03-19T08:41:32.019Z,16.48
2023-03-19T08:47:34.216Z,17.10
2023-03-19T08:53:37.569Z,18.50
2023-03-19T08:59:39.999Z,16.33
2023-03-19T09:05:42.078Z,18.00
2023-03-19T09:11:44.211Z,17.10
2023-03-19T09:17:46.511Z,16.20
2023-03-19T09:23:48.876Z,16.50
2023-03-19T09:29:51.136Z,16.25
2023-03-19T09:35:54.467Z,17.02
2023-03-19T09:42:04.845Z,16.13
2023-03-19T09:48:12.994Z,14.65
2023-03-19T09:54:33.944Z,16.48
2023-03-19T10:00:38.606Z,15.70
2023-03-19T10:06:41.477Z,16.73
2023-03-19T10:12:43.572Z,14.48
2023-03-19T10:18:50.577Z,15.75
2023-03-19T10:24:56.970Z,16.48
2023-03-19T10:31:06.124Z,16.60
2023-03-19T10:37:17.778Z,15.32
2023-03-19T10:43:26.257Z,15.32
2023-03-19T10:49:28.633Z,15.90
2023-03-19T10:55:32.354Z,15.30
2023-03-19T11:01:39.889Z,15.80
2023-03-19T11:07:41.933Z,13.70
2023-03-19T11:13:47.618Z,14.10
2023-03-19T11:19:59.896Z,14.68
2023-03-19T11:26:02.159Z,13.65
2023-03-19T11:32:21.159Z,14.23
2023-03-19T11:39:05.805Z,12.90
2023-03-19T11:45:36.021Z,12.63
2023-03-19T11:51:51.379Z,10.85
2023-03-19T11:58:19.885Z,12.10
2023-03-19T12:04:49.525Z,10.77
2023-03-19T12:10:57.651Z,11.63
2023-03-19T12:17:20.913Z,12.18
2023-03-19T12:23:45.147Z,9.20
2023-03-19T12:29:52.656Z,10.18
2023-03-19T12:35:57.068Z,10.10
2023-03-19T12:42:02.077Z,11.25
2023-03-19T12:48:36.533Z,8.10
2023-03-19T12:54:46.312Z,9.23
2023-03-19T13:01:09.346Z,9.48
2023-03-19T13:07:35.096Z,9.13
2023-03-19T13:13:57.612Z,9.02
2023-03-19T13:20:06.113Z,8.27
2023-03-19T13:26:13.008Z,9.45
2023-03-19T13:32:29.981Z,9.85
2023-03-19T13:38:40.030Z,9.20
2023-03-19T13:44:49.834Z,10.38
2023-03-19T13:51:01.443Z,8.57
2023-03-19T13:57:15.388Z,8.40
2023-03-19T14:03:27.079Z,7.63
2023-03-19T14:10:05.191Z,8.18
2023-03-19T14:16:32.296Z,7.30
2023-03-19T14:22:40.574Z,8.45
2023-03-19T14:28:51.838Z,7.93
2023-03-19T14:34:55.726Z,8.63
2023-03-19T14:41:01.353Z,9.93
2023-03-19T14:47:19.219Z,8.90
2023-03-19T14:53:37.655Z,8.32
2023-03-19T14:59:40.852Z,7.88
2023-03-19T15:05:43.460Z,7.63
2023-03-19T15:11:56.147Z,7.70
2023-03-19T15:18:10.172Z,6.60
2023-03-19T15:24:17.551Z,7.88
2023-03-19T15:30:24.856Z,8.50
2023-03-19T15:36:33.737Z,7.95
2023-03-19T15:42:39.838Z,9.38
2023-03-19T15:48:42.546Z,7.63
2023-03-19T15:54:45.289Z,7.75
2023-03-19T16:06:51.044Z,8.75
2023-03-19T16:12:53.957Z,9.05
2023-03-19T16:25:00.247Z,10.23
2023-03-19T16:31:03.112Z,10.60
2023-03-19T16:37:34.345Z,9.85
2023-03-19T16:43:37.693Z,10.02
2023-03-19T16:49:40.030Z,11.52
2023-03-19T16:55:42.965Z,10.75
2023-03-19T17:01:45.099Z,13.75
2023-03-19T17:07:47.498Z,19.43
2023-03-19T17:13:49.844Z,18.05
2023-03-19T17:19:52.220Z,16.63
2023-03-19T17:25:54.998Z,13.38
2023-03-19T17:38:01.198Z,16.23
2023-03-19T17:50:17.287Z,16.98
2023-03-19T17:56:22.671Z,15.40
2023-03-19T18:02:31.733Z,16.50
2023-03-19T18:08:34.595Z,14.93
2023-03-19T18:14:37.000Z,14.85
2023-03-19T18:20:40.645Z,15.90
2023-03-19T18:26:43.113Z,16.83
2023-03-19T18:32:48.782Z,17.55
2023-03-19T18:38:51.206Z,16.50
2023-03-19T18:44:53.732Z,17.40
2023-03-19T18:50:56.160Z,16.35
2023-03-19T18:57:02.658Z,16.45
2023-03-19T19:03:05.806Z,19.30
2023-03-19T19:09:08.565Z,19.35
2023-03-19T19:15:30.832Z,21.52
2023-03-19T19:21:33.285Z,21.23
2023-03-19T19:27:35.927Z,21.42
2023-03-19T19:33:38.286Z,22.70
2023-03-19T19:39:41.186Z,23.60
2023-03-19T19:45:44.919Z,21.48
2023-03-19T19:51:47.289Z,20.35
2023-03-19T19:57:50.346Z,20.45
2023-03-19T20:03:53.217Z,19.60
2023-03-19T20:09:55.582Z,18.67
2023-03-19T20:15:59.253Z,20.35
2023-03-19T20:22:02.119Z,19.63
2023-03-19T20:34:22.547Z,20.73
2023-03-19T20:40:41.079Z,19.95
2023-03-19T20:46:43.486Z,18.65
2023-03-19T20:52:46.727Z,20.13
2023-03-19T20:58:49.411Z,19.83
2023-03-19T21:04:52.041Z,18.75
2023-03-19T21:10:54.709Z,20.75
2023-03-19T21:16:57.315Z,20.33
2023-03-19T21:23:21.675Z,18.35
2023-03-19T21:29:33.619Z,17.17
2023-03-19T21:35:36.423Z,17.58
2023-03-19T21:41:38.855Z,17.95
2023-03-19T21:47:41.339Z,19.55
2023-03-19T21:53:46.000Z,18.17
2023-03-19T21:59:48.539Z,24.30
2023-03-19T22:05:51.647Z,22.15
2023-03-19T22:11:54.149Z,20.85
2023-03-19T22:17:56.321Z,22.70
2023-03-19T22:23:58.940Z,20.57
2023-03-19T22:30:02.200Z,20.55
2023-03-19T22:36:04.820Z,19.70
2023-03-19T22:42:09.122Z,22.27
2023-03-19T22:48:16.073Z,27.35
2023-03-19T22:54:18.115Z,26.30
2023-03-19T23:00:24.295Z,26.63
2023-03-19T23:06:30.826Z,26.67
2023-03-19T23:12:33.239Z,26.55
2023-03-19T23:18:37.377Z,26.30
2023-03-19T23:24:39.668Z,25.10
2023-03-19T23:30:41.876Z,27.63
2023-03-19T23:36:44.670Z,29.03
2023-03-19T23:42:53.092Z,29.50
2023-03-19T23:48:56.854Z,28.30
2023-03-19T23:54:59.159Z,27.77
